sensor_id;sensor_type;location;lat;lon;timestamp;temperature;humidity
14000;DHT22;7075;53.574;10.054;2023-07-31T00:00:34;16.80;99.90
14000;DHT22;7075;53.574;10.054;2023-07-31T00:02:59;16.80;99.90
14000;DHT22;7075;53.574;10.054;2023-07-31T00:05:25;16.70;99.90
14000;DHT22;7075;53.574;10.054;2023-07-31T00:07:51;16.70;99.90
14000;DHT22;7075;53.574;10.054;2023-07-31T00:10:17;16.80;99.90
14000;DHT22;7075;53.574;10.054;2023-07-31T00:12:44;16.70;99.90
14000;DHT22;7075;53.574;10.054;2023-07-31T00:15:10;16.70;99.90
14000;DHT22;7075;53.574;10.054;2023-07-31T00:17:37;16.70;99.90
14000;DHT22;7075;53.574;10.054;2023-07-31T00:20:03;16.70;99.90
14000;DHT22;7075;53.574;10.054;2023-07-31T00:22:29;16.70;99.90
14000;DHT22;7075;53.574;10.054;2023-07-31T00:24:56;16.70;99.90
14000;DHT22;7075;53.574;10.054;2023-07-31T00:27:21;16.70;99.90
14000;DHT22;7075;53.574;10.054;2023-07-31T00:29:47;16.70;99.90
14000;DHT22;7075;53.574;10.054;2023-07-31T00:32:12;16.60;99.90
14000;DHT22;7075;53.574;10.054;2023-07-31T00:34:38;16.60;99.90
14000;DHT22;7075;53.574;10.054;2023-07-31T00:37:04;16.60;99.90
14000;DHT22;7075;53.574;10.054;2023-07-31T00:39:30;16.60;99.90
14000;DHT22;7075;53.574;10.054;2023-07-31T00:41:56;16.60;99.90
14000;DHT22;7075;53.574;10.054;2023-07-31T00:44:21;16.60;99.90
14000;DHT22;7075;53.574;10.054;2023-07-31T00:46:47;16.60;99.90
14000;DHT22;7075;53.574;10.054;2023-07-31T00:49:13;16.60;99.90
14000;DHT22;7075;53.574;10.054;2023-07-31T00:51:39;16.60;99.90
14000;DHT22;7075;53.574;10.054;2023-07-31T00:54:06;16.70;99.90
14000;DHT22;7075;53.574;10.054;2023-07-31T00:56:32;16.70;99.90
14000;DHT22;7075;53.574;10.054;2023-07-31T00:58:58;16.60;99.90
14000;DHT22;7075;53.574;10.054;2023-07-31T01:01:24;16.60;99.90
14000;DHT22;7075;53.574;10.054;2023-07-31T01:03:50;16.50;99.90
14000;DHT22;7075;53.574;10.054;2023-07-31T01:09:17;16.50;99.90
14000;DHT22;7075;53.574;10.054;2023-07-31T01:11:53;16.40;99.90
14000;DHT22;7075;53.574;10.054;2023-07-31T01:14:18;16.40;99.90
14000;DHT22;7075;53.574;10.054;2023-07-31T01:16:44;16.40;99.90
14000;DHT22;7075;53.574;10.054;2023-07-31T01:19:11;16.40;99.90
14000;DHT22;7075;53.574;10.054;2023-07-31T01:22:13;16.30;99.90
14000;DHT22;7075;53.574;10.054;2023-07-31T01:25:05;16.30;99.90
14000;DHT22;7075;53.574;10.054;2023-07-31T01:27:36;16.20;99.90
14000;DHT22;7075;53.574;10.054;2023-07-31T01:30:08;16.20;99.90
14000;DHT22;7075;53.574;10.054;2023-07-31T01:32:40;16.20;99.90
14000;DHT22;7075;53.574;10.054;2023-07-31T01:35:07;16.20;99.90
14000;DHT22;7075;53.574;10.054;2023-07-31T01:37:34;16.20;99.90
14000;DHT22;7075;53.574;10.054;2023-07-31T01:39:59;16.20;99.90
14000;DHT22;7075;53.574;10.054;2023-07-31T01:42:25;16.20;99.90
14000;DHT22;7075;53.574;10.054;2023-07-31T01:44:50;16.30;99.90
14000;DHT22;7075;53.574;10.054;2023-07-31T01:47:16;16.30;99.90
14000;DHT22;7075;53.574;10.054;2023-07-31T01:49:42;16.30;99.90
14000;DHT22;7075;53.574;10.054;2023-07-31T01:52:07;16.30;99.90
14000;DHT22;7075;53.574;10.054;2023-07-31T01:54:33;16.30;99.90
14000;DHT22;7075;53.574;10.054;2023-07-31T01:56:59;16.30;99.90
14000;DHT22;7075;53.574;10.054;2023-07-31T01:59:25;16.40;99.90
14000;DHT22;7075;53.574;10.054;2023-07-31T02:01:50;16.40;99.90
14000;DHT22;7075;53.574;10.054;2023-07-31T02:04:16;16.30;99.90
14000;DHT22;7075;53.574;10.054;2023-07-31T02:06:41;16.40;99.90
14000;DHT22;7075;53.574;10.054;2023-07-31T02:09:07;16.40;99.90
14000;DHT22;7075;53.574;10.054;2023-07-31T02:11:32;16.40;99.90
14000;DHT22;7075;53.574;10.054;2023-07-31T02:13:58;16.30;99.90
14000;DHT22;7075;53.574;10.054;2023-07-31T02:16:23;16.30;99.90
14000;DHT22;7075;53.574;10.054;2023-07-31T02:19:00;16.40;99.90
14000;DHT22;7075;53.574;10.054;2023-07-31T02:21:25;16.40;99.90
14000;DHT22;7075;53.574;10.054;2023-07-31T02:23:50;16.40;99.90
14000;DHT22;7075;53.574;10.054;2023-07-31T02:26:16;16.50;99.90
14000;DHT22;7075;53.574;10.054;2023-07-31T02:28:42;16.40;99.90
14000;DHT22;7075;53.574;10.054;2023-07-31T02:31:08;16.50;99.90
14000;DHT22;7075;53.574;10.054;2023-07-31T02:33:34;16.50;99.90
14000;DHT22;7075;53.574;10.054;2023-07-31T02:35:59;16.50;99.90
14000;DHT22;7075;53.574;10.054;2023-07-31T02:38:25;16.40;99.90
14000;DHT22;7075;53.574;10.054;2023-07-31T02:40:51;16.50;99.90
14000;DHT22;7075;53.574;10.054;2023-07-31T02:43:16;16.50;99.90
14000;DHT22;7075;53.574;10.054;2023-07-31T02:45:43;16.50;99.90
14000;DHT22;7075;53.574;10.054;2023-07-31T02:48:09;16.40;99.90
14000;DHT22;7075;53.574;10.054;2023-07-31T02:50:35;16.40;99.90
14000;DHT22;7075;53.574;10.054;2023-07-31T02:53:00;16.40;99.90
14000;DHT22;7075;53.574;10.054;2023-07-31T02:55:26;16.40;99.90
14000;DHT22;7075;53.574;10.054;2023-07-31T02:57:51;16.40;99.90
14000;DHT22;7075;53.574;10.054;2023-07-31T03:00:18;16.40;99.90
14000;DHT22;7075;53.574;10.054;2023-07-31T03:02:44;16.40;99.90
14000;DHT22;7075;53.574;10.054;2023-07-31T03:05:09;16.40;99.90
14000;DHT22;7075;53.574;10.054;2023-07-31T03:07:35;16.40;99.90
14000;DHT22;7075;53.574;10.054;2023-07-31T03:10:01;16.40;99.90
14000;DHT22;7075;53.574;10.054;2023-07-31T03:12:29;16.40;99.90
14000;DHT22;7075;53.574;10.054;2023-07-31T03:14:55;16.40;99.90
14000;DHT22;7075;53.574;10.054;2023-07-31T03:17:20;16.40;99.90
14000;DHT22;7075;53.574;10.054;2023-07-31T03:19:46;16.40;99.90
14000;DHT22;7075;53.574;10.054;2023-07-31T03:22:12;16.30;99.90
14000;DHT22;7075;53.574;10.054;2023-07-31T03:24:38;16.30;99.90
14000;DHT22;7075;53.574;10.054;2023-07-31T03:27:04;16.40;99.90
14000;DHT22;7075;53.574;10.054;2023-07-31T03:29:29;16.40;99.90
14000;DHT22;7075;53.574;10.054;2023-07-31T03:32:04;16.40;99.90
14000;DHT22;7075;53.574;10.054;2023-07-31T03:34:30;16.30;99.90
14000;DHT22;7075;53.574;10.054;2023-07-31T03:36:57;16.30;99.90
14000;DHT22;7075;53.574;10.054;2023-07-31T03:39:23;16.30;99.90
14000;DHT22;7075;53.574;10.054;2023-07-31T03:41:49;16.40;99.90
14000;DHT22;7075;53.574;10.054;2023-07-31T03:44:23;16.30;99.90
14000;DHT22;7075;53.574;10.054;2023-07-31T03:46:49;16.30;99.90
14000;DHT22;7075;53.574;10.054;2023-07-31T03:49:14;16.30;99.90
14000;DHT22;7075;53.574;10.054;2023-07-31T03:51:40;16.40;99.90
14000;DHT22;7075;53.574;10.054;2023-07-31T03:54:07;16.40;99.90
14000;DHT22;7075;53.574;10.054;2023-07-31T03:56:33;16.40;99.90
14000;DHT22;7075;53.574;10.054;2023-07-31T03:58:58;16.40;99.90
14000;DHT22;7075;53.574;10.054;2023-07-31T04:01:24;16.30;99.90
14000;DHT22;7075;53.574;10.054;2023-07-31T04:03:50;16.30;99.90
14000;DHT22;7075;53.574;10.054;2023-07-31T04:06:15;16.20;99.90
14000;DHT22;7075;53.574;10.054;2023-07-31T04:08:44;16.30;99.90
14000;DHT22;7075;53.574;10.054;2023-07-31T04:11:10;16.30;99.90
14000;DHT22;7075;53.574;10.054;2023-07-31T04:13:37;16.30;99.90
14000;DHT22;7075;53.574;10.054;2023-07-31T04:16:03;16.30;99.90
14000;DHT22;7075;53.574;10.054;2023-07-31T04:18:29;16.40;99.90
14000;DHT22;7075;53.574;10.054;2023-07-31T04:20:56;16.40;99.90
14000;DHT22;7075;53.574;10.054;2023-07-31T04:23:23;16.30;99.90
14000;DHT22;7075;53.574;10.054;2023-07-31T04:25:49;16.30;99.90
14000;DHT22;7075;53.574;10.054;2023-07-31T04:28:14;16.20;99.90
14000;DHT22;7075;53.574;10.054;2023-07-31T04:30:40;16.20;99.90
14000;DHT22;7075;53.574;10.054;2023-07-31T04:33:05;16.10;99.90
14000;DHT22;7075;53.574;10.054;2023-07-31T04:35:31;16.10;99.90
14000;DHT22;7075;53.574;10.054;2023-07-31T04:37:56;16.10;99.90
14000;DHT22;7075;53.574;10.054;2023-07-31T04:40:22;16.10;99.90
14000;DHT22;7075;53.574;10.054;2023-07-31T04:42:48;16.10;99.90
14000;DHT22;7075;53.574;10.054;2023-07-31T04:45:14;16.00;99.90
14000;DHT22;7075;53.574;10.054;2023-07-31T04:47:40;16.00;99.90
14000;DHT22;7075;53.574;10.054;2023-07-31T04:50:06;16.00;99.90
14000;DHT22;7075;53.574;10.054;2023-07-31T04:52:32;16.00;99.90
14000;DHT22;7075;53.574;10.054;2023-07-31T04:54:57;16.00;99.90
14000;DHT22;7075;53.574;10.054;2023-07-31T04:57:23;16.00;99.90
14000;DHT22;7075;53.574;10.054;2023-07-31T04:59:48;16.00;99.90
14000;DHT22;7075;53.574;10.054;2023-07-31T05:02:14;16.00;99.90
14000;DHT22;7075;53.574;10.054;2023-07-31T05:04:40;15.90;99.90
14000;DHT22;7075;53.574;10.054;2023-07-31T05:07:06;15.90;99.90
14000;DHT22;7075;53.574;10.054;2023-07-31T05:09:32;15.90;99.90
14000;DHT22;7075;53.574;10.054;2023-07-31T05:11:58;15.90;99.90
14000;DHT22;7075;53.574;10.054;2023-07-31T05:14:23;15.90;99.90
14000;DHT22;7075;53.574;10.054;2023-07-31T05:16:48;15.90;99.90
14000;DHT22;7075;53.574;10.054;2023-07-31T05:19:14;15.90;99.90
14000;DHT22;7075;53.574;10.054;2023-07-31T05:21:40;15.90;99.90
14000;DHT22;7075;53.574;10.054;2023-07-31T05:24:06;15.90;99.90
14000;DHT22;7075;53.574;10.054;2023-07-31T05:26:31;16.00;99.90
14000;DHT22;7075;53.574;10.054;2023-07-31T05:28:57;15.90;99.90
14000;DHT22;7075;53.574;10.054;2023-07-31T05:31:23;15.90;99.90
14000;DHT22;7075;53.574;10.054;2023-07-31T05:33:50;16.00;99.90
14000;DHT22;7075;53.574;10.054;2023-07-31T05:36:16;15.90;99.90
14000;DHT22;7075;53.574;10.054;2023-07-31T05:38:41;16.00;99.90
14000;DHT22;7075;53.574;10.054;2023-07-31T05:41:09;16.00;99.90
14000;DHT22;7075;53.574;10.054;2023-07-31T05:43:34;15.90;99.90
14000;DHT22;7075;53.574;10.054;2023-07-31T05:46:00;15.90;99.90
14000;DHT22;7075;53.574;10.054;2023-07-31T05:48:27;15.90;99.90
14000;DHT22;7075;53.574;10.054;2023-07-31T05:50:52;15.90;99.90
14000;DHT22;7075;53.574;10.054;2023-07-31T05:53:18;15.90;99.90
14000;DHT22;7075;53.574;10.054;2023-07-31T05:55:43;15.90;99.90
14000;DHT22;7075;53.574;10.054;2023-07-31T05:58:09;15.90;99.90
14000;DHT22;7075;53.574;10.054;2023-07-31T06:00:34;15.90;99.90
14000;DHT22;7075;53.574;10.054;2023-07-31T06:03:00;15.90;99.90
14000;DHT22;7075;53.574;10.054;2023-07-31T06:05:26;15.80;99.90
14000;DHT22;7075;53.574;10.054;2023-07-31T06:07:53;15.80;99.90
14000;DHT22;7075;53.574;10.054;2023-07-31T06:10:19;15.80;99.90
14000;DHT22;7075;53.574;10.054;2023-07-31T06:12:44;15.90;99.90
14000;DHT22;7075;53.574;10.054;2023-07-31T06:15:10;15.90;99.90
14000;DHT22;7075;53.574;10.054;2023-07-31T06:17:38;15.90;99.90
14000;DHT22;7075;53.574;10.054;2023-07-31T06:20:05;15.90;99.90
14000;DHT22;7075;53.574;10.054;2023-07-31T06:22:31;15.90;99.90
14000;DHT22;7075;53.574;10.054;2023-07-31T06:24:57;16.00;99.90
14000;DHT22;7075;53.574;10.054;2023-07-31T06:27:23;16.00;99.90
14000;DHT22;7075;53.574;10.054;2023-07-31T06:29:48;16.00;99.90
14000;DHT22;7075;53.574;10.054;2023-07-31T06:32:15;16.10;99.90
14000;DHT22;7075;53.574;10.054;2023-07-31T06:34:41;16.10;99.90
14000;DHT22;7075;53.574;10.054;2023-07-31T06:37:06;16.10;99.90
14000;DHT22;7075;53.574;10.054;2023-07-31T06:39:32;16.10;99.90
14000;DHT22;7075;53.574;10.054;2023-07-31T06:41:57;16.10;99.90
14000;DHT22;7075;53.574;10.054;2023-07-31T06:44:23;16.10;99.90
14000;DHT22;7075;53.574;10.054;2023-07-31T06:46:48;16.10;99.90
